createdAt,value
2019-02-25T00:02:24.798Z,3.40
2019-02-25T00:04:55.844Z,3.30
2019-02-25T00:07:28.523Z,3.30
2019-02-25T00:09:59.384Z,3.20
2019-02-25T00:12:30.202Z,3.20
2019-02-25T00:15:01.514Z,3.20
2019-02-25T00:17:33.953Z,3.30
2019-02-25T00:20:05.662Z,3.30
2019-02-25T00:22:36.551Z,3.30
2019-02-25T00:25:08.131Z,3.30
2019-02-25T00:27:38.992Z,3.30
2019-02-25T00:30:10.208Z,3.30
2019-02-25T00:32:41.970Z,3.20
2019-02-25T00:35:12.750Z,3.30
2019-02-25T00:37:43.559Z,3.30
2019-02-25T00:40:14.991Z,3.20
2019-02-25T00:42:45.853Z,3.20
2019-02-25T00:45:16.787Z,3.20
2019-02-25T00:47:47.571Z,3.20
2019-02-25T00:50:18.534Z,3.10
2019-02-25T00:52:49.318Z,3.10
2019-02-25T00:55:20.215Z,3.00
2019-02-25T00:57:51.149Z,3.10
2019-02-25T01:00:22.250Z,3.10
2019-02-25T01:02:53.045Z,3.10
2019-02-25T01:05:24.136Z,3.10
2019-02-25T01:07:55.979Z,3.00
2019-02-25T01:10:27.845Z,3.00
2019-02-25T01:12:58.695Z,3.00
2019-02-25T01:15:30.379Z,3.00
2019-02-25T01:18:01.168Z,3.00
2019-02-25T01:20:32.120Z,2.90
2019-02-25T01:23:03.021Z,2.80
2019-02-25T01:25:33.799Z,2.80
2019-02-25T01:28:07.634Z,2.70
2019-02-25T01:30:38.438Z,2.70
2019-02-25T01:33:09.210Z,2.70
2019-02-25T01:35:39.979Z,2.70
2019-02-25T01:38:10.719Z,2.70
2019-02-25T01:40:41.504Z,2.70
2019-02-25T01:43:12.318Z,2.70
2019-02-25T01:45:43.135Z,2.70
2019-02-25T01:48:13.966Z,2.70
2019-02-25T01:50:44.792Z,2.70
2019-02-25T01:53:15.666Z,2.70
2019-02-25T01:55:46.442Z,2.70
2019-02-25T01:58:17.282Z,2.70
2019-02-25T02:00:49.920Z,2.60
2019-02-25T02:03:20.787Z,2.50
2019-02-25T02:05:52.722Z,2.40
2019-02-25T02:08:24.537Z,2.20
2019-02-25T02:10:55.322Z,2.20
2019-02-25T02:13:26.115Z,2.10
2019-02-25T02:15:57.339Z,2.10
2019-02-25T02:18:28.322Z,2.10
2019-02-25T02:20:59.089Z,2.00
2019-02-25T02:23:29.845Z,2.10
2019-02-25T02:26:00.634Z,2.00
2019-02-25T02:28:32.557Z,1.90
2019-02-25T02:31:03.526Z,1.90
2019-02-25T02:33:46.215Z,1.90
2019-02-25T02:36:17.113Z,1.90
2019-02-25T02:38:48.072Z,1.90
2019-02-25T02:41:18.875Z,2.00
2019-02-25T02:43:49.957Z,2.00
2019-02-25T02:46:57.876Z,2.10
2019-02-25T02:49:28.701Z,2.20
2019-02-25T02:52:20.126Z,2.20
2019-02-25T02:54:51.008Z,2.20
2019-02-25T02:57:21.891Z,2.20
2019-02-25T02:59:52.695Z,2.20
2019-02-25T03:02:23.503Z,2.20
2019-02-25T03:04:54.368Z,2.20
2019-02-25T03:07:25.343Z,2.20
2019-02-25T03:09:58.925Z,2.10
2019-02-25T03:12:29.786Z,2.10
2019-02-25T03:15:00.607Z,2.00
2019-02-25T03:17:32.548Z,2.00
2019-02-25T03:20:03.330Z,2.00
2019-02-25T03:22:34.180Z,2.00
2019-02-25T03:25:05.817Z,2.00
2019-02-25T03:27:36.592Z,2.00
2019-02-25T03:30:12.905Z,1.90
2019-02-25T03:32:43.739Z,1.90
2019-02-25T03:35:14.595Z,1.90
2019-02-25T03:37:45.459Z,1.90
2019-02-25T03:40:17.792Z,1.90
2019-02-25T03:42:48.593Z,1.80
2019-02-25T03:45:20.785Z,1.60
2019-02-25T03:47:51.616Z,1.60
2019-02-25T03:50:22.399Z,1.50
2019-02-25T03:52:53.175Z,1.50
2019-02-25T03:55:24.023Z,1.50
2019-02-25T03:57:54.833Z,1.50
2019-02-25T04:00:25.693Z,1.50
2019-02-25T04:02:56.469Z,1.50
2019-02-25T04:05:27.476Z,1.50
2019-02-25T04:07:58.418Z,1.50
2019-02-25T04:10:29.813Z,1.50
2019-02-25T04:13:00.631Z,1.50
2019-02-25T04:15:35.237Z,1.50
2019-02-25T04:18:06.957Z,1.40
2019-02-25T04:20:37.822Z,1.30
2019-02-25T04:23:08.581Z,1.30
2019-02-25T04:25:39.483Z,1.30
2019-02-25T04:28:11.510Z,1.30
2019-02-25T04:30:42.382Z,1.30
2019-02-25T04:33:13.195Z,1.30
2019-02-25T04:35:43.981Z,1.30
2019-02-25T04:38:14.737Z,1.30
2019-02-25T04:40:46.111Z,1.30
2019-02-25T04:43:16.883Z,1.30
2019-02-25T04:45:59.347Z,1.30
2019-02-25T04:48:31.639Z,1.30
2019-02-25T04:51:03.549Z,1.30
2019-02-25T04:53:34.341Z,1.20
2019-02-25T04:56:05.191Z,1.30
2019-02-25T04:58:36.060Z,1.20
2019-02-25T05:01:07.908Z,1.20
2019-02-25T05:03:39.094Z,1.20
2019-02-25T05:06:09.914Z,1.20
2019-02-25T05:08:40.718Z,1.20
2019-02-25T05:11:12.323Z,1.20
2019-02-25T05:13:43.111Z,1.10
2019-02-25T05:16:13.964Z,1.10
2019-02-25T05:18:49.806Z,1.20
2019-02-25T05:21:20.692Z,1.10
2019-02-25T05:23:51.584Z,1.10
2019-02-25T05:26:22.384Z,1.10
2019-02-25T05:28:53.200Z,1.00
2019-02-25T05:31:24.064Z,0.90
2019-02-25T05:33:55.015Z,0.90
2019-02-25T05:36:25.805Z,0.90
2019-02-25T05:38:58.809Z,0.90
2019-02-25T05:41:33.186Z,0.90
2019-02-25T05:44:04.159Z,0.90
2019-02-25T05:46:39.216Z,0.90
2019-02-25T05:49:09.006Z,0.90
2019-02-25T05:51:43.539Z,0.90
2019-02-25T05:54:14.384Z,0.90
2019-02-25T05:56:45.203Z,0.90
2019-02-25T05:59:16.047Z,0.90
2019-02-25T06:01:46.886Z,0.90
2019-02-25T06:04:17.796Z,0.90
2019-02-25T06:06:48.667Z,0.80
2019-02-25T06:09:19.457Z,0.80
2019-02-25T06:11:50.259Z,0.80
2019-02-25T06:14:21.178Z,0.80
2019-02-25T06:16:52.083Z,0.70
2019-02-25T06:19:23.728Z,0.60
2019-02-25T06:21:54.547Z,0.60
2019-02-25T06:24:25.354Z,0.60
2019-02-25T06:26:56.147Z,0.60
2019-02-25T06:29:28.901Z,0.60
2019-02-25T06:31:59.656Z,0.60
2019-02-25T06:34:32.031Z,0.60
2019-02-25T06:37:02.951Z,0.60
2019-02-25T06:39:33.826Z,0.60
2019-02-25T06:42:04.689Z,0.60
2019-02-25T06:44:35.596Z,0.60
2019-02-25T06:47:06.504Z,0.70
2019-02-25T06:49:37.418Z,0.60
2019-02-25T06:52:08.269Z,0.70
2019-02-25T06:54:39.195Z,0.70
2019-02-25T06:57:10.108Z,0.70
2019-02-25T06:59:41.019Z,0.70
2019-02-25T07:02:11.924Z,0.70
2019-02-25T07:04:57.863Z,0.70
2019-02-25T07:07:46.209Z,0.70
2019-02-25T07:10:26.713Z,0.70
2019-02-25T07:13:18.158Z,0.70
2019-02-25T07:15:57.852Z,0.70
2019-02-25T07:18:41.597Z,0.70
2019-02-25T07:21:32.203Z,0.70
2019-02-25T07:24:22.063Z,0.70
2019-02-25T07:27:11.923Z,0.70
2019-02-25T07:29:59.982Z,0.70
2019-02-25T07:33:01.205Z,0.70
2019-02-25T07:36:03.345Z,0.70
2019-02-25T07:38:58.912Z,0.80
2019-02-25T07:41:41.739Z,0.80
2019-02-25T07:44:31.447Z,0.80
2019-02-25T07:47:23.981Z,0.90
2019-02-25T07:50:22.675Z,0.90
2019-02-25T07:53:14.559Z,1.00
2019-02-25T07:56:04.509Z,1.00
2019-02-25T07:58:45.929Z,1.10
2019-02-25T08:01:39.511Z,1.20
2019-02-25T08:04:27.901Z,1.30
2019-02-25T08:07:17.661Z,1.50
2019-02-25T08:10:00.790Z,1.60
2019-02-25T08:12:45.439Z,1.80
2019-02-25T08:15:38.254Z,1.90
2019-02-25T08:18:27.055Z,2.00
2019-02-25T08:21:28.957Z,2.10
2019-02-25T08:24:30.489Z,2.20
2019-02-25T08:27:18.773Z,2.30
2019-02-25T08:30:00.310Z,2.50
2019-02-25T08:32:50.056Z,2.60
2019-02-25T08:36:41.818Z,2.70
2019-02-25T08:39:41.363Z,2.80
2019-02-25T08:42:17.351Z,3.00
2019-02-25T08:45:00.789Z,3.20
2019-02-25T08:47:37.235Z,3.30
2019-02-25T08:50:10.348Z,3.40
2019-02-25T08:52:41.130Z,3.50
2019-02-25T08:55:12.175Z,3.60
2019-02-25T08:57:42.982Z,3.70
2019-02-25T09:00:14.483Z,3.80
2019-02-25T09:02:45.311Z,4.00
2019-02-25T09:05:16.113Z,4.10
2019-02-25T09:07:48.377Z,4.20
2019-02-25T09:10:19.203Z,4.50
2019-02-25T09:12:51.499Z,4.90
2019-02-25T09:15:22.396Z,5.10
2019-02-25T09:17:51.521Z,5.40
2019-02-25T09:20:22.388Z,5.60
2019-02-25T09:22:53.292Z,5.70
2019-02-25T09:25:25.047Z,5.90
2019-02-25T09:27:55.970Z,6.20
2019-02-25T09:30:26.821Z,6.50
2019-02-25T09:32:57.673Z,6.80
2019-02-25T09:35:28.546Z,6.90
2019-02-25T09:37:59.440Z,7.00
2019-02-25T09:40:30.344Z,7.20
2019-02-25T09:43:02.756Z,7.50
2019-02-25T09:45:33.647Z,7.60
2019-02-25T09:48:04.559Z,7.60
2019-02-25T09:50:35.426Z,7.60
2019-02-25T09:53:07.338Z,7.60
2019-02-25T09:55:38.409Z,7.80
2019-02-25T09:58:10.675Z,8.00
2019-02-25T10:00:41.501Z,8.10
2019-02-25T10:03:12.379Z,8.20
2019-02-25T10:05:43.288Z,8.30
2019-02-25T10:08:14.113Z,8.40
2019-02-25T10:10:44.984Z,8.70
2019-02-25T10:13:17.424Z,9.10
2019-02-25T10:15:48.255Z,9.30
2019-02-25T10:18:19.191Z,9.70
2019-02-25T10:20:50.145Z,10.00
2019-02-25T10:23:21.005Z,10.40
2019-02-25T10:25:53.790Z,10.80
2019-02-25T10:28:24.611Z,11.00
2019-02-25T10:30:55.514Z,11.20
2019-02-25T10:33:26.290Z,11.50
2019-02-25T10:35:57.089Z,11.70
2019-02-25T10:38:27.894Z,11.90
2019-02-25T10:40:59.385Z,12.30
2019-02-25T10:43:34.572Z,12.50
2019-02-25T10:46:06.821Z,12.80
2019-02-25T10:48:37.582Z,13.00
2019-02-25T10:51:09.330Z,13.20
2019-02-25T10:53:40.670Z,13.60
2019-02-25T10:56:31.514Z,13.90
2019-02-25T10:59:06.112Z,14.10
2019-02-25T11:01:39.144Z,14.50
2019-02-25T11:04:09.726Z,14.90
2019-02-25T11:06:40.566Z,15.20
2019-02-25T11:09:30.409Z,15.40
2019-02-25T11:12:01.271Z,15.80
2019-02-25T11:14:33.394Z,16.30
2019-02-25T11:17:05.718Z,16.30
2019-02-25T11:19:36.530Z,16.30
2019-02-25T11:22:10.405Z,16.60
2019-02-25T11:24:41.634Z,16.80
2019-02-25T11:27:13.369Z,16.80
2019-02-25T11:29:46.094Z,16.80
2019-02-25T11:32:19.899Z,16.90
2019-02-25T11:34:50.413Z,17.00
2019-02-25T11:37:22.475Z,17.20
2019-02-25T11:39:54.783Z,17.30
2019-02-25T11:42:25.196Z,17.80
2019-02-25T11:44:57.054Z,17.70
2019-02-25T11:50:12.258Z,17.70
2019-02-25T11:52:43.205Z,17.70
2019-02-25T11:55:14.735Z,18.30
2019-02-25T11:57:45.729Z,18.40
2019-02-25T12:00:18.475Z,18.40
2019-02-25T12:02:50.325Z,18.20
2019-02-25T12:05:21.170Z,18.10
2019-02-25T12:07:51.957Z,18.10
2019-02-25T12:10:22.949Z,18.70
2019-02-25T12:12:54.870Z,19.50
2019-02-25T12:15:26.826Z,19.90
2019-02-25T12:17:57.722Z,19.90
2019-02-25T12:20:28.624Z,19.40
2019-02-25T12:22:59.488Z,19.20
2019-02-25T12:25:30.400Z,19.00
2019-02-25T12:28:01.658Z,18.90
2019-02-25T12:30:32.596Z,18.90
2019-02-25T12:33:03.522Z,19.50
2019-02-25T12:35:34.660Z,19.30
2019-02-25T12:38:05.511Z,19.10
2019-02-25T12:40:36.539Z,19.30
2019-02-25T12:43:07.559Z,19.90
2019-02-25T12:45:38.384Z,19.90
2019-02-25T12:48:09.230Z,20.20
2019-02-25T12:50:40.095Z,20.30
2019-02-25T12:53:10.911Z,20.10
2019-02-25T12:55:41.765Z,20.30
2019-02-25T12:58:12.624Z,20.80
2019-02-25T13:00:43.536Z,21.10
2019-02-25T13:03:14.475Z,21.60
2019-02-25T13:05:46.391Z,21.60
2019-02-25T13:08:17.167Z,21.80
2019-02-25T13:10:48.111Z,22.20
2019-02-25T13:13:17.916Z,22.50
2019-02-25T13:15:49.664Z,22.90
2019-02-25T13:18:20.492Z,22.90
2019-02-25T13:20:50.237Z,23.00
2019-02-25T13:23:23.394Z,23.20
2019-02-25T13:25:54.171Z,23.30
2019-02-25T13:28:26.205Z,23.10
2019-02-25T13:30:59.252Z,22.60
2019-02-25T13:33:32.822Z,22.40
2019-02-25T13:36:05.182Z,22.70
2019-02-25T13:38:36.154Z,23.10
2019-02-25T13:41:07.220Z,22.50
2019-02-25T13:43:38.158Z,22.80
2019-02-25T13:46:09.050Z,23.20
2019-02-25T13:48:40.321Z,23.50
2019-02-25T13:51:11.258Z,23.70
2019-02-25T13:53:42.162Z,24.00
2019-02-25T13:56:13.149Z,24.20
2019-02-25T13:58:44.011Z,24.30
2019-02-25T14:01:16.551Z,24.40
2019-02-25T14:03:47.731Z,24.30
2019-02-25T14:06:18.594Z,24.40
2019-02-25T14:08:49.483Z,24.50
2019-02-25T14:11:20.371Z,24.60
2019-02-25T14:13:51.335Z,24.60
2019-02-25T14:16:22.238Z,24.50
2019-02-25T14:18:54.176Z,24.30
2019-02-25T14:21:25.131Z,24.30
2019-02-25T14:23:57.602Z,24.30
2019-02-25T14:26:28.580Z,24.20
2019-02-25T14:28:59.911Z,24.20
2019-02-25T14:31:30.827Z,24.00
2019-02-25T14:34:04.094Z,24.00
2019-02-25T14:36:34.286Z,24.00
2019-02-25T14:39:17.956Z,24.10
2019-02-25T14:41:48.868Z,24.20
2019-02-25T14:44:21.459Z,23.90
2019-02-25T14:46:52.372Z,23.70
2019-02-25T14:49:23.280Z,23.70
2019-02-25T14:51:54.249Z,23.60
2019-02-25T14:54:26.749Z,23.40
2019-02-25T14:56:58.258Z,23.10
2019-02-25T14:59:29.133Z,23.00
2019-02-25T15:02:02.162Z,23.10
2019-02-25T15:04:35.809Z,23.30
2019-02-25T15:07:08.541Z,23.40
2019-02-25T15:09:39.726Z,23.40
2019-02-25T15:12:11.907Z,23.40
2019-02-25T15:14:43.053Z,23.30
2019-02-25T15:17:14.964Z,23.20
2019-02-25T15:19:46.873Z,23.10
2019-02-25T15:22:17.750Z,22.90
2019-02-25T15:24:50.265Z,22.60
2019-02-25T15:27:21.328Z,22.40
2019-02-25T15:29:53.242Z,22.20
2019-02-25T15:32:24.206Z,22.10
2019-02-25T15:34:57.127Z,22.00
2019-02-25T15:37:29.214Z,21.90
2019-02-25T15:40:00.497Z,21.70
2019-02-25T15:42:32.349Z,21.50
2019-02-25T15:45:05.629Z,21.40
2019-02-25T15:47:36.574Z,21.30
2019-02-25T15:50:08.868Z,21.30
2019-02-25T15:52:41.104Z,21.10
2019-02-25T15:55:15.245Z,21.00
2019-02-25T15:57:46.609Z,20.80
2019-02-25T16:00:21.280Z,20.50
2019-02-25T16:02:54.121Z,20.20
2019-02-25T16:05:27.379Z,20.00
2019-02-25T16:08:02.464Z,20.00
2019-02-25T16:10:36.104Z,19.80
2019-02-25T16:13:14.114Z,19.50
2019-02-25T16:15:43.269Z,19.30
2019-02-25T16:18:16.043Z,19.10
2019-02-25T16:20:48.194Z,18.90
2019-02-25T16:23:20.270Z,18.80
2019-02-25T16:25:53.182Z,18.60
2019-02-25T16:28:36.124Z,18.50
2019-02-25T16:31:08.875Z,18.20
2019-02-25T16:33:41.194Z,18.00
2019-02-25T16:36:13.247Z,17.90
2019-02-25T16:38:44.195Z,17.70
2019-02-25T16:41:16.030Z,17.50
2019-02-25T16:43:48.263Z,17.30
2019-02-25T16:46:20.359Z,17.10
2019-02-25T16:48:52.883Z,16.90
2019-02-25T16:51:25.906Z,16.70
2019-02-25T16:53:57.713Z,16.50
2019-02-25T16:56:28.659Z,16.30
2019-02-25T16:58:59.757Z,16.20
2019-02-25T17:01:32.157Z,15.90
2019-02-25T17:04:03.402Z,15.70
2019-02-25T17:06:34.779Z,15.50
2019-02-25T17:09:09.713Z,15.30
2019-02-25T17:11:43.984Z,15.10
2019-02-25T17:14:18.615Z,14.90
2019-02-25T17:16:49.548Z,14.80
2019-02-25T17:19:22.124Z,14.60
2019-02-25T17:21:53.735Z,14.50
2019-02-25T17:24:26.488Z,14.40
2019-02-25T17:26:59.996Z,14.10
2019-02-25T17:29:35.842Z,13.90
2019-02-25T17:32:08.856Z,13.80
2019-02-25T17:34:41.399Z,13.70
2019-02-25T17:37:14.375Z,13.50
2019-02-25T17:39:45.364Z,13.40
2019-02-25T17:42:16.588Z,13.30
2019-02-25T17:45:22.459Z,13.10
2019-02-25T17:47:58.322Z,12.90
2019-02-25T17:50:26.536Z,12.80
2019-02-25T17:52:58.716Z,12.60
2019-02-25T17:55:31.630Z,12.50
2019-02-25T17:58:03.106Z,12.30
2019-02-25T18:00:38.832Z,12.20
2019-02-25T18:03:09.196Z,12.10
2019-02-25T18:05:41.181Z,12.00
2019-02-25T18:10:47.461Z,11.70
2019-02-25T18:16:10.220Z,11.40
2019-02-25T18:18:47.480Z,11.30
2019-02-25T18:21:19.782Z,11.20
2019-02-25T18:23:52.046Z,11.10
2019-02-25T18:26:23.742Z,11.00
2019-02-25T18:28:55.372Z,10.90
2019-02-25T18:31:26.613Z,10.70
2019-02-25T18:33:57.882Z,10.60
2019-02-25T18:36:29.417Z,10.50
2019-02-25T18:39:01.462Z,10.40
2019-02-25T18:41:37.388Z,10.30
2019-02-25T18:44:09.253Z,10.20
2019-02-25T18:46:41.720Z,10.10
2019-02-25T18:49:13.784Z,9.90
2019-02-25T18:51:45.792Z,9.80
2019-02-25T18:54:17.435Z,9.70
2019-02-25T18:56:49.658Z,9.70
2019-02-25T18:59:21.145Z,9.60
2019-02-25T19:01:53.652Z,9.60
2019-02-25T19:04:26.115Z,9.50
2019-02-25T19:06:57.312Z,9.50
2019-02-25T19:09:28.688Z,9.40
2019-02-25T19:11:59.696Z,9.30
2019-02-25T20:23:03.851Z,7.30
2019-02-25T20:25:34.746Z,7.10
2019-02-25T20:28:07.139Z,7.10
2019-02-25T20:30:38.456Z,7.00
2019-02-25T20:33:10.901Z,7.00
2019-02-25T20:35:45.949Z,7.00
2019-02-25T20:38:16.183Z,7.00
2019-02-25T20:40:50.830Z,7.00
2019-02-25T20:43:21.822Z,6.90
2019-02-25T20:45:54.665Z,6.90
2019-02-25T20:48:28.826Z,6.80
2019-02-25T20:51:01.856Z,6.80
2019-02-25T20:53:33.943Z,6.70
2019-02-25T20:56:05.326Z,6.70
2019-02-25T20:58:38.326Z,6.60
2019-02-25T21:01:12.071Z,6.60
2019-02-25T21:03:45.768Z,6.60
2019-02-25T21:06:16.850Z,6.50
2019-02-25T21:08:49.207Z,6.50
2019-02-25T21:11:21.791Z,6.50
2019-02-25T21:13:52.994Z,6.50
2019-02-25T21:16:26.333Z,6.50
2019-02-25T21:18:58.077Z,6.40
2019-02-25T21:21:30.748Z,6.40
2019-02-25T21:24:04.195Z,6.40
2019-02-25T21:26:38.596Z,6.30
2019-02-25T21:29:10.557Z,6.10
2019-02-25T21:31:43.111Z,6.00
2019-02-25T21:34:17.758Z,5.90
2019-02-25T21:36:47.573Z,5.90
2019-02-25T21:39:19.124Z,5.80
2019-02-25T21:41:51.501Z,5.80
2019-02-25T21:44:26.205Z,5.70
2019-02-25T21:46:58.421Z,5.70
2019-02-25T21:49:33.851Z,5.70
2019-02-25T21:52:06.074Z,5.70
2019-02-25T21:54:36.412Z,5.70
2019-02-25T21:57:09.643Z,5.60
2019-02-25T21:59:41.422Z,5.60
2019-02-25T22:02:13.589Z,5.60
2019-02-25T22:04:45.495Z,5.50
2019-02-25T22:07:24.114Z,5.50
2019-02-25T22:09:50.342Z,5.50
2019-02-25T22:12:22.152Z,5.50
2019-02-25T22:14:53.250Z,5.40
2019-02-25T22:17:25.497Z,5.40
2019-02-25T22:19:57.715Z,5.40
2019-02-25T22:22:31.015Z,5.40
2019-02-25T22:25:06.123Z,5.30
2019-02-25T22:27:36.949Z,5.30
2019-02-25T22:30:10.213Z,5.30
2019-02-25T22:32:43.051Z,5.30
2019-02-25T22:35:15.210Z,5.20
2019-02-25T22:37:49.336Z,5.20
2019-02-25T22:40:19.163Z,5.20
2019-02-25T22:42:52.211Z,5.10
2019-02-25T22:45:24.304Z,5.00
2019-02-25T22:47:56.504Z,4.80
2019-02-25T22:50:29.066Z,4.80
2019-02-25T22:53:01.648Z,4.80
2019-02-25T22:55:36.804Z,4.70
2019-02-25T22:58:07.843Z,4.70
2019-02-25T23:00:45.748Z,4.70
2019-02-25T23:03:20.915Z,4.60
2019-02-25T23:05:53.235Z,4.70
2019-02-25T23:08:25.985Z,4.70
2019-02-25T23:10:56.772Z,4.70
2019-02-25T23:13:32.682Z,4.60
2019-02-25T23:16:06.092Z,4.60
2019-02-25T23:18:37.102Z,4.60
2019-02-25T23:21:09.945Z,4.60
2019-02-25T23:23:42.874Z,4.50
2019-02-25T23:26:16.906Z,4.50
2019-02-25T23:28:48.939Z,4.50
2019-02-25T23:31:20.725Z,4.50
2019-02-25T23:33:53.691Z,4.40
2019-02-25T23:36:26.561Z,4.40
2019-02-25T23:38:59.560Z,4.40
2019-02-25T23:41:36.285Z,4.30
2019-02-25T23:44:07.146Z,4.20
2019-02-25T23:46:40.047Z,4.20
2019-02-25T23:49:11.372Z,4.20
2019-02-25T23:51:43.819Z,4.10
2019-02-25T23:54:16.178Z,4.10
2019-02-25T23:56:50.350Z,4.00
2019-02-25T23:59:24.755Z,4.10
